Time;durP1;ratioP1;P1;durP2;ratioP2;P2;SDS_P1;SDS_P2;PMS_P1;PMS_P2;Temp;Humidity;BMP_temperature;BMP_pressure;BME280_temperature;BME280_humidity;BME280_pressure;Samples;Min_cycle;Max_cycle;Signal;HPM_P1;HPM_P2
2022/08/15 00:01:57;;;;;;;7.35;2.70;;;22.10;72.00;;;;;;5023592;28;20133;-52
2022/08/15 00:04:24;;;;;;;4.93;2.70;;;22.10;72.40;;;;;;5034183;28;20485;-46
2022/08/15 00:07:00;;;;;;;7.38;2.53;;;22.00;72.10;;;;;;5033295;28;20037;-45
2022/08/15 00:09:27;;;;;;;8.65;2.67;;;21.90;72.80;;;;;;5022075;28;20046;-54
2022/08/15 00:12:14;;;;;;;6.60;2.58;;;21.90;72.60;;;;;;5029129;28;20041;-55
2022/08/15 00:15:01;;;;;;;4.05;2.53;;;21.90;72.80;;;;;;5015152;28;20449;-51
2022/08/15 00:17:28;;;;;;;5.55;2.50;;;21.70;73.20;;;;;;5022441;28;20057;-50
2022/08/15 00:20:14;;;;;;;5.35;2.72;;;21.70;73.10;;;;;;5032174;28;20050;-49
2022/08/15 00:22:48;;;;;;;4.47;2.70;;;21.70;73.40;;;;;;5014915;28;20076;-46
2022/08/15 00:25:17;;;;;;;3.03;2.38;;;21.70;73.60;;;;;;5019792;28;20092;-53
2022/08/15 00:27:44;;;;;;;4.38;2.20;;;21.60;73.60;;;;;;5033827;28;20061;-49
2022/08/15 00:30:20;;;;;;;3.42;2.38;;;21.60;73.00;;;;;;5032059;28;20062;-55
2022/08/15 00:32:51;;;;;;;4.25;2.13;;;21.60;73.10;;;;;;5025422;28;20053;-52
2022/08/15 00:35:41;;;;;;;5.53;1.98;;;21.50;73.00;;;;;;5025489;28;20042;-52
2022/08/15 00:38:21;;;;;;;4.72;2.20;;;21.50;72.30;;;;;;5024692;28;20049;-53
2022/08/15 00:43:41;;;;;;;2.90;2.00;;;21.40;71.90;;;;;;5026116;28;20473;-55
2022/08/15 00:46:13;;;;;;;3.58;2.25;;;21.30;72.10;;;;;;5030116;28;20042;-52
2022/08/15 00:48:47;;;;;;;3.78;2.17;;;21.20;72.30;;;;;;5022710;28;20144;-48
2022/08/15 00:51:15;;;;;;;3.17;1.85;;;21.20;72.60;;;;;;5031800;28;20056;-56
2022/08/15 00:53:43;;;;;;;4.57;1.95;;;21.20;72.50;;;;;;5031918;28;20041;-55
2022/08/15 00:56:10;;;;;;;4.15;1.83;;;21.20;72.30;;;;;;5015231;28;20069;-57
2022/08/15 00:58:56;;;;;;;5.00;2.00;;;21.20;72.40;;;;;;5028801;28;20046;-53
2022/08/15 01:01:32;;;;;;;3.95;2.33;;;21.20;72.10;;;;;;5028743;28;20131;-53
2022/08/15 01:04:01;;;;;;;5.35;2.58;;;21.20;72.80;;;;;;5022478;28;20156;-49
2022/08/15 01:06:29;;;;;;;4.43;2.42;;;21.20;73.50;;;;;;5014145;28;20088;-53
2022/08/15 01:08:57;;;;;;;3.75;2.30;;;21.20;73.40;;;;;;5013023;28;20456;-54
2022/08/15 01:11:24;;;;;;;4.50;2.10;;;21.20;73.70;;;;;;5015682;28;20377;-57
2022/08/15 01:14:00;;;;;;;5.10;2.28;;;21.00;72.60;;;;;;5030280;28;20436;-44
2022/08/15 01:16:30;;;;;;;4.32;2.00;;;21.10;72.50;;;;;;5020998;28;20548;-53
2022/08/15 01:19:00;;;;;;;5.20;2.05;;;21.00;72.80;;;;;;5014013;28;20080;-52
2022/08/15 01:21:29;;;;;;;5.53;2.05;;;21.00;72.60;;;;;;5018052;28;20397;-53
2022/08/15 01:23:56;;;;;;;2.85;1.52;;;21.00;72.70;;;;;;5021709;28;20049;-52
2022/08/15 01:26:23;;;;;;;4.28;1.73;;;21.00;72.40;;;;;;5012564;28;20108;-52
2022/08/15 01:29:11;;;;;;;2.92;2.00;;;21.00;72.50;;;;;;5027557;28;20064;-53
2022/08/15 01:31:43;;;;;;;5.30;2.00;;;21.00;72.60;;;;;;5028902;28;20044;-50
2022/08/15 01:34:16;;;;;;;3.13;2.00;;;21.00;72.60;;;;;;5018947;28;20420;-48
2022/08/15 01:36:45;;;;;;;2.90;1.95;;;21.00;73.00;;;;;;5012475;28;20042;-54
2022/08/15 01:39:13;;;;;;;7.40;2.50;;;21.00;73.00;;;;;;5012656;28;20497;-54
2022/08/15 01:41:44;;;;;;;3.78;2.40;;;21.00;73.30;;;;;;5012275;28;20133;-53
2022/08/15 01:44:21;;;;;;;5.82;2.60;;;21.00;73.60;;;;;;5013701;28;20041;-55
2022/08/15 01:46:58;;;;;;;4.38;2.38;;;21.00;73.90;;;;;;5012365;28;20069;-57
2022/08/15 01:49:26;;;;;;;5.03;2.42;;;21.00;73.90;;;;;;5018376;28;20064;-49
2022/08/15 01:51:54;;;;;;;3.15;2.20;;;21.00;74.10;;;;;;5031148;28;20038;-49
2022/08/15 01:54:21;;;;;;;3.85;2.35;;;20.90;74.30;;;;;;5012824;28;20048;-54
2022/08/15 01:57:08;;;;;;;4.63;2.28;;;20.90;74.40;;;;;;5028291;28;20033;-52
2022/08/15 01:59:36;;;;;;;4.55;2.38;;;20.90;74.40;;;;;;5019317;28;20045;-53
2022/08/15 02:02:02;;;;;;;3.72;2.10;;;20.90;74.50;;;;;;5020341;28;20111;-52
2022/08/15 02:04:49;;;;;;;3.10;2.20;;;20.90;74.60;;;;;;5031631;28;20037;-53
2022/08/15 02:07:20;;;;;;;5.78;2.42;;;20.80;74.50;;;;;;5031112;28;20477;-51
2022/08/15 02:09:51;;;;;;;3.78;2.30;;;20.80;74.80;;;;;;5018006;28;20176;-52
2022/08/15 02:12:29;;;;;;;3.85;2.45;;;20.80;74.60;;;;;;5013373;28;20088;-51
2022/08/15 02:15:19;;;;;;;3.90;2.28;;;20.80;74.50;;;;;;5028391;28;20136;-57
2022/08/15 02:17:48;;;;;;;5.90;2.50;;;20.70;74.60;;;;;;5021386;28;20412;-47
2022/08/15 02:20:15;;;;;;;4.88;2.38;;;20.70;74.80;;;;;;5016006;28;20448;-51
2022/08/15 02:22:50;;;;;;;4.10;2.03;;;20.70;75.30;;;;;;5020289;28;20117;-56
2022/08/15 02:25:17;;;;;;;3.90;1.75;;;20.70;74.30;;;;;;5033022;28;20048;-54
2022/08/15 02:27:50;;;;;;;5.07;1.83;;;20.60;73.40;;;;;;5034110;28;20045;-55
2022/08/15 02:30:19;;;;;;;2.97;1.60;;;20.50;73.10;;;;;;5029321;28;20481;-52
2022/08/15 02:32:47;;;;;;;6.05;1.77;;;20.50;72.50;;;;;;5000105;28;20041;-56
2022/08/15 02:35:16;;;;;;;3.22;1.67;;;20.50;72.50;;;;;;5019620;28;20033;-53
2022/08/15 02:37:44;;;;;;;3.17;1.67;;;20.50;72.70;;;;;;5025323;28;20041;-49
2022/08/15 02:40:26;;;;;;;5.13;1.77;;;20.50;72.80;;;;;;5017876;28;20046;-50
2022/08/15 02:43:13;;;;;;;3.47;1.98;;;20.40;73.00;;;;;;5033718;28;20435;-58
2022/08/15 02:45:47;;;;;;;3.60;1.65;;;20.40;73.10;;;;;;5025630;28;20068;-51
2022/08/15 02:48:35;;;;;;;3.83;1.73;;;20.30;73.20;;;;;;5020782;28;20038;-51
2022/08/15 02:51:03;;;;;;;2.10;1.75;;;20.30;73.30;;;;;;5033445;28;20038;-53
2022/08/15 02:53:36;;;;;;;3.40;1.60;;;20.30;73.40;;;;;;5017972;28;20046;-51
2022/08/15 02:56:13;;;;;;;3.03;1.80;;;20.40;73.20;;;;;;5023751;28;20049;-57
2022/08/15 02:58:42;;;;;;;4.68;1.90;;;20.40;73.60;;;;;;5032221;28;20041;-47
2022/08/15 03:01:09;;;;;;;2.55;1.60;;;20.40;74.20;;;;;;5028377;28;20799;-54
2022/08/15 03:03:44;;;;;;;2.65;1.58;;;20.40;74.10;;;;;;5032902;28;20046;-50
2022/08/15 03:06:10;;;;;;;6.05;2.22;;;20.30;74.50;;;;;;5018977;28;20049;-53
2022/08/15 03:08:42;;;;;;;3.65;2.05;;;20.30;74.60;;;;;;5016704;28;20052;-53
2022/08/15 03:11:13;;;;;;;3.45;2.13;;;20.30;75.30;;;;;;5024918;28;20045;-55
2022/08/15 03:13:40;;;;;;;3.25;2.30;;;20.30;75.50;;;;;;5048616;28;20038;-51
2022/08/15 03:16:09;;;;;;;4.88;2.35;;;20.30;75.70;;;;;;5033549;28;20041;-50
2022/08/15 03:18:46;;;;;;;3.00;2.30;;;20.30;76.10;;;;;;5029060;28;20385;-53
2022/08/15 03:21:19;;;;;;;4.55;2.47;;;20.30;76.60;;;;;;5000071;28;20038;-54
2022/08/15 03:23:49;;;;;;;3.67;2.25;;;20.30;76.50;;;;;;5033419;28;20099;-58
2022/08/15 03:26:17;;;;;;;4.35;2.22;;;20.30;76.40;;;;;;5033631;28;20072;-53
2022/08/15 03:29:04;;;;;;;3.78;2.45;;;20.20;77.00;;;;;;5032806;28;20435;-54
2022/08/15 03:31:37;;;;;;;6.18;2.65;;;20.20;77.00;;;;;;5015382;28;20046;-52
2022/08/15 03:34:13;;;;;;;5.30;2.28;;;20.10;77.40;;;;;;5014578;28;20049;-50
2022/08/15 03:36:45;;;;;;;4.15;2.38;;;20.10;77.10;;;;;;5028744;28;20046;-54
2022/08/15 03:39:21;;;;;;;3.40;2.22;;;20.20;77.00;;;;;;5021789;28;20580;-57
2022/08/15 03:41:50;;;;;;;3.25;2.10;;;20.20;77.10;;;;;;5026016;28;20052;-51
2022/08/15 03:44:21;;;;;;;4.28;2.05;;;20.10;75.80;;;;;;5014639;28;20048;-56
2022/08/15 03:46:53;;;;;;;4.10;1.80;;;20.10;76.00;;;;;;5016772;28;20046;-49
2022/08/15 03:49:20;;;;;;;5.97;1.80;;;20.00;75.60;;;;;;5034608;28;20116;-55
2022/08/15 03:52:08;;;;;;;5.18;1.95;;;20.00;75.40;;;;;;5032025;28;20047;-53
2022/08/15 03:54:38;;;;;;;5.35;2.05;;;20.00;75.30;;;;;;5033208;28;20412;-49
2022/08/15 03:57:06;;;;;;;3.35;1.90;;;20.00;75.00;;;;;;5033012;28;20046;-48
2022/08/15 03:59:33;;;;;;;4.78;1.65;;;20.00;74.50;;;;;;5032948;28;20041;-47
2022/08/15 04:02:08;;;;;;;2.60;1.70;;;20.00;74.60;;;;;;5027139;28;20053;-45
2022/08/15 04:04:51;;;;;;;2.58;1.70;;;19.90;74.40;;;;;;5022806;28;20497;-55
2022/08/15 04:07:25;;;;;;;4.13;1.95;;;19.90;74.70;;;;;;5017606;28;20099;-54
2022/08/15 04:10:09;;;;;;;4.43;1.77;;;19.90;74.70;;;;;;5014118;28;20041;-56
2022/08/15 04:12:57;;;;;;;2.95;1.70;;;19.90;74.70;;;;;;5024550;28;20436;-50
2022/08/15 04:15:27;;;;;;;2.50;1.73;;;19.90;74.60;;;;;;5031313;28;20049;-50
2022/08/15 04:17:56;;;;;;;3.88;2.10;;;19.90;74.90;;;;;;5031735;28;20527;-53
2022/08/15 04:20:32;;;;;;;2.88;2.03;;;19.90;75.10;;;;;;5023039;28;20084;-53
2022/08/15 04:23:04;;;;;;;2.80;1.88;;;19.90;75.20;;;;;;5030801;28;20045;-49
2022/08/15 04:25:34;;;;;;;4.18;1.85;;;19.90;75.40;;;;;;5000780;28;20070;-51
2022/08/15 04:28:20;;;;;;;2.30;1.70;;;19.90;76.20;;;;;;5032835;28;20503;-52
2022/08/15 04:31:08;;;;;;;2.95;1.90;;;19.90;76.10;;;;;;5013276;28;20057;-56
2022/08/15 04:33:40;;;;;;;3.85;2.20;;;19.90;76.20;;;;;;5029413;28;20136;-53
2022/08/15 04:36:28;;;;;;;3.00;2.25;;;19.90;76.60;;;;;;5026601;28;20409;-47
2022/08/15 04:39:00;;;;;;;5.32;2.20;;;19.80;77.10;;;;;;5027352;28;20053;-56
2022/08/15 04:41:32;;;;;;;4.53;2.35;;;19.80;77.10;;;;;;5026816;28;20485;-53
2022/08/15 04:44:05;;;;;;;3.75;2.10;;;19.80;77.20;;;;;;5027067;28;20393;-55
2022/08/15 04:46:32;;;;;;;3.40;2.20;;;19.80;77.50;;;;;;5024827;28;20054;-55
2022/08/15 04:48:59;;;;;;;7.93;2.60;;;19.80;77.70;;;;;;5020416;28;20049;-50
2022/08/15 04:51:27;;;;;;;3.25;2.33;;;19.80;78.00;;;;;;5025709;28;20100;-52
2022/08/15 04:54:06;;;;;;;5.13;2.10;;;19.80;78.70;;;;;;5027702;28;20084;-51
2022/08/15 04:56:36;;;;;;;6.15;2.45;;;19.70;78.90;;;;;;5029391;28;20049;-51
2022/08/15 04:59:19;;;;;;;3.60;2.53;;;19.70;78.90;;;;;;5021982;28;20050;-53
2022/08/15 05:02:11;;;;;;;3.25;2.35;;;19.70;79.00;;;;;;5020343;28;20148;-44
2022/08/15 05:04:58;;;;;;;4.40;4.00;;;19.70;79.40;;;;;;5027333;28;20046;-51
2022/08/15 05:07:26;;;;;;;6.75;4.88;;;19.70;82.60;;;;;;5012888;28;20046;-52
2022/08/15 05:09:55;;;;;;;8.30;5.60;;;19.80;87.60;;;;;;5029655;28;20132;-54
2022/08/15 05:12:30;;;;;;;6.70;5.07;;;19.90;88.60;;;;;;5026021;28;20477;-54
2022/08/15 05:15:00;;;;;;;13.85;5.78;;;19.90;88.70;;;;;;5021909;28;20120;-55
2022/08/15 05:17:29;;;;;;;11.88;6.28;;;20.00;90.00;;;;;;5014092;28;20125;-46
2022/08/15 05:20:16;;;;;;;12.23;7.18;;;20.00;89.80;;;;;;5017527;28;20038;-46
2022/08/15 05:22:42;;;;;;;11.05;7.57;;;20.00;91.30;;;;;;5027538;28;20052;-51
2022/08/15 05:25:20;;;;;;;8.85;7.15;;;20.10;92.40;;;;;;5012614;28;20110;-52
2022/08/15 05:27:51;;;;;;;12.52;10.38;;;20.10;92.60;;;;;;5030601;28;20053;-54
2022/08/15 05:30:20;;;;;;;13.27;10.23;;;20.10;93.50;;;;;;5027138;28;20508;-51
2022/08/15 05:32:47;;;;;;;12.65;9.48;;;20.10;94.20;;;;;;5022257;28;20064;-57
2022/08/15 05:35:17;;;;;;;15.50;13.32;;;20.20;94.60;;;;;;5025078;28;20084;-54
2022/08/15 05:37:44;;;;;;;17.10;14.15;;;20.20;95.40;;;;;;5030169;28;20235;-50
2022/08/15 05:40:12;;;;;;;20.55;16.65;;;20.30;95.80;;;;;;5030708;28;20057;-52
2022/08/15 05:42:51;;;;;;;19.13;17.17;;;20.30;95.90;;;;;;5042277;28;20509;-53
2022/08/15 05:45:18;;;;;;;24.20;17.90;;;20.30;96.70;;;;;;5030219;28;20420;-51
2022/08/15 05:47:58;;;;;;;20.30;18.20;;;20.30;96.90;;;;;;5017981;28;20056;-56
2022/08/15 05:50:25;;;;;;;20.75;17.98;;;20.30;97.50;;;;;;5026439;28;20037;-51
2022/08/15 05:52:52;;;;;;;20.88;18.77;;;20.40;97.30;;;;;;5023538;28;20088;-51
2022/08/15 05:55:23;;;;;;;20.30;18.27;;;20.40;97.50;;;;;;5029533;28;20046;-48
2022/08/15 05:57:52;;;;;;;23.45;18.88;;;20.40;97.80;;;;;;5027847;28;20378;-49
2022/08/15 06:00:22;;;;;;;19.33;16.38;;;20.50;97.70;;;;;;5027088;28;20053;-54
2022/08/15 06:02:49;;;;;;;20.33;17.10;;;20.50;97.80;;;;;;5030302;28;20052;-50
2022/08/15 06:05:23;;;;;;;18.48;16.00;;;20.50;98.20;;;;;;5032766;28;20063;-46
2022/08/15 06:08:01;;;;;;;17.27;15.50;;;20.50;97.80;;;;;;5029054;28;20053;-51
2022/08/15 06:10:35;;;;;;;18.20;16.27;;;20.60;98.00;;;;;;5029155;28;20045;-55
2022/08/15 06:13:08;;;;;;;20.38;16.92;;;20.60;98.20;;;;;;5024417;28;20053;-57
2022/08/15 06:15:35;;;;;;;19.67;17.67;;;20.70;98.00;;;;;;5032942;28;20417;-49
2022/08/15 06:18:03;;;;;;;19.52;17.00;;;20.70;98.10;;;;;;5024083;28;20437;-53
2022/08/15 06:20:32;;;;;;;20.58;17.20;;;20.80;98.10;;;;;;5024141;28;20073;-47
2022/08/15 06:23:12;;;;;;;18.40;15.77;;;20.90;97.90;;;;;;5022039;28;20049;-46
2022/08/15 06:25:39;;;;;;;17.98;16.15;;;20.90;98.10;;;;;;5026892;28;20049;-50
2022/08/15 06:28:07;;;;;;;20.30;17.27;;;21.00;97.80;;;;;;5030513;28;20057;-49
2022/08/15 06:30:53;;;;;;;20.85;16.73;;;21.00;98.00;;;;;;5020766;28;20053;-52
2022/08/15 06:33:21;;;;;;;21.35;17.35;;;21.00;97.70;;;;;;5031808;28;20502;-54
2022/08/15 06:35:48;;;;;;;20.10;16.15;;;21.00;98.10;;;;;;5034087;28;20038;-47
2022/08/15 06:38:23;;;;;;;19.30;17.35;;;21.00;98.00;;;;;;5016569;28;20050;-51
2022/08/15 06:41:09;;;;;;;19.50;15.30;;;21.00;97.80;;;;;;5022400;28;20049;-53
2022/08/15 06:43:36;;;;;;;24.95;18.10;;;21.00;98.30;;;;;;5026967;28;20038;-51
2022/08/15 06:46:06;;;;;;;19.42;17.23;;;21.00;98.10;;;;;;5034394;28;20041;-55
2022/08/15 06:48:53;;;;;;;20.23;17.38;;;21.10;98.30;;;;;;5033272;28;20493;-51
2022/08/15 06:51:34;;;;;;;25.73;19.17;;;21.10;98.00;;;;;;5007859;28;20045;-50
2022/08/15 06:54:12;;;;;;;19.40;16.77;;;21.10;98.20;;;;;;5033000;28;20048;-56
2022/08/15 06:57:00;;;;;;;20.55;15.65;;;21.10;98.30;;;;;;5023895;28;20046;-50
2022/08/15 06:59:29;;;;;;;16.80;14.88;;;21.10;98.50;;;;;;5024018;28;20120;-52
2022/08/15 07:02:05;;;;;;;15.20;13.65;;;21.10;98.30;;;;;;5028008;28;20501;-51
2022/08/15 07:04:43;;;;;;;18.58;13.77;;;21.10;98.60;;;;;;5027665;28;20042;-50
2022/08/15 07:07:12;;;;;;;16.55;12.60;;;21.20;98.50;;;;;;5031490;28;20061;-50
2022/08/15 07:09:39;;;;;;;15.77;12.23;;;21.20;98.40;;;;;;5027483;28;20048;-50
2022/08/15 07:12:06;;;;;;;14.93;11.63;;;21.40;98.40;;;;;;5015886;28;20049;-54
2022/08/15 07:14:34;;;;;;;16.92;10.55;;;21.40;98.20;;;;;;5032878;28;20042;-53
2022/08/15 07:17:03;;;;;;;18.90;10.63;;;21.50;98.10;;;;;;5029676;28;20068;-51
2022/08/15 07:19:31;;;;;;;14.73;10.63;;;21.60;98.10;;;;;;5030075;28;20107;-51
2022/08/15 07:22:13;;;;;;;16.23;10.10;;;21.80;97.80;;;;;;5012993;28;20057;-51
2022/08/15 07:24:42;;;;;;;15.95;9.40;;;21.90;97.50;;;;;;5023004;28;20053;-53
2022/08/15 07:27:13;;;;;;;17.52;9.45;;;22.00;97.30;;;;;;5030460;28;20091;-55
2022/08/15 07:29:42;;;;;;;13.40;8.15;;;22.00;97.20;;;;;;5024114;28;20062;-53
2022/08/15 07:32:22;;;;;;;14.80;8.60;;;22.00;97.10;;;;;;5014124;28;20462;-54
2022/08/15 07:34:59;;;;;;;13.13;7.55;;;22.10;96.80;;;;;;5032385;28;20477;-49
2022/08/15 07:37:29;;;;;;;13.30;7.53;;;22.20;96.60;;;;;;5019217;28;20538;-52
2022/08/15 07:40:06;;;;;;;12.80;7.05;;;22.30;96.30;;;;;;5027049;28;20038;-50
2022/08/15 07:42:33;;;;;;;11.80;6.05;;;22.40;96.20;;;;;;5018964;28;20075;-55
2022/08/15 07:45:21;;;;;;;11.35;5.60;;;22.50;95.90;;;;;;5022288;28;20045;-51
2022/08/15 07:47:51;;;;;;;9.43;4.82;;;22.60;95.60;;;;;;5020657;28;20054;-51
2022/08/15 07:50:18;;;;;;;8.43;5.00;;;22.80;95.00;;;;;;5031016;28;20056;-50
2022/08/15 07:52:57;;;;;;;10.32;4.72;;;22.90;94.30;;;;;;5030007;28;20128;-51
2022/08/15 07:55:28;;;;;;;13.35;4.70;;;23.00;93.60;;;;;;5028842;28;20056;-53
2022/08/15 07:58:16;;;;;;;7.70;3.67;;;23.10;93.20;;;;;;5004264;28;20038;-48
2022/08/15 08:00:59;;;;;;;11.45;4.25;;;23.30;92.70;;;;;;5027830;28;20465;-49
2022/08/15 08:03:46;;;;;;;8.57;3.80;;;23.40;92.60;;;;;;5027842;28;20045;-51
2022/08/15 08:06:15;;;;;;;7.97;3.88;;;23.50;92.20;;;;;;5037687;28;20046;-53
2022/08/15 08:09:03;;;;;;;10.10;4.10;;;23.70;92.00;;;;;;5011497;28;20049;-57
2022/08/15 08:11:30;;;;;;;10.55;3.65;;;23.80;92.00;;;;;;5014269;28;20376;-53
2022/08/15 08:13:58;;;;;;;9.55;3.50;;;23.80;91.80;;;;;;5019401;28;20116;-53
2022/08/15 08:16:25;;;;;;;7.05;3.60;;;23.90;91.50;;;;;;5012515;28;20591;-53
2022/08/15 08:18:58;;;;;;;9.40;3.65;;;23.90;91.50;;;;;;5023342;28;20523;-46
2022/08/15 08:21:25;;;;;;;10.55;3.58;;;24.00;91.50;;;;;;5026864;28;20074;-46
2022/08/15 08:23:58;;;;;;;7.60;3.47;;;24.10;90.80;;;;;;5013159;28;20042;-47
2022/08/15 08:26:26;;;;;;;10.30;3.50;;;24.10;90.50;;;;;;5009957;28;20148;-46
2022/08/15 08:28:57;;;;;;;11.48;4.15;;;24.20;90.50;;;;;;5013959;28;20385;-55
2022/08/15 08:31:26;;;;;;;10.82;3.80;;;24.20;90.20;;;;;;5017619;28;20408;-51
2022/08/15 08:33:53;;;;;;;7.75;3.72;;;24.30;90.60;;;;;;5030594;28;20042;-55
2022/08/15 08:36:21;;;;;;;10.75;3.97;;;24.30;90.40;;;;;;5018154;28;20042;-54
2022/08/15 08:39:03;;;;;;;10.05;4.13;;;24.30;90.50;;;;;;5028837;28;20041;-52
2022/08/15 08:41:36;;;;;;;8.45;3.70;;;24.30;90.30;;;;;;5031960;28;20048;-56
2022/08/15 08:44:11;;;;;;;11.00;4.07;;;24.40;90.40;;;;;;5026795;28;20041;-45
2022/08/15 08:46:44;;;;;;;11.20;3.40;;;24.60;90.40;;;;;;5033146;28;20068;-50
2022/08/15 08:49:11;;;;;;;7.40;3.45;;;24.70;90.20;;;;;;5016024;28;20056;-53
2022/08/15 08:51:42;;;;;;;9.88;3.90;;;24.90;90.00;;;;;;5016245;28;20046;-47
2022/08/15 08:54:10;;;;;;;10.30;3.75;;;25.00;89.70;;;;;;5021886;28;20034;-50
2022/08/15 08:56:54;;;;;;;11.43;3.80;;;25.00;89.30;;;;;;5026498;28;20543;-48
2022/08/15 08:59:23;;;;;;;8.20;3.45;;;25.10;89.10;;;;;;5012761;28;20279;-48
2022/08/15 09:01:54;;;;;;;9.07;3.58;;;25.30;88.90;;;;;;5018422;28;20060;-47
2022/08/15 09:04:22;;;;;;;10.65;3.78;;;25.40;88.60;;;;;;5032875;28;20121;-49
2022/08/15 09:06:50;;;;;;;9.70;3.55;;;25.50;89.30;;;;;;5029622;28;20373;-50
2022/08/15 09:09:17;;;;;;;11.32;3.92;;;25.70;87.70;;;;;;5028029;28;20045;-47
2022/08/15 09:11:49;;;;;;;8.55;3.40;;;25.90;87.10;;;;;;5018210;28;20133;-48
2022/08/15 09:14:20;;;;;;;9.45;3.40;;;26.00;86.10;;;;;;5013087;28;20053;-48
2022/08/15 09:17:00;;;;;;;9.27;3.03;;;26.10;86.80;;;;;;5031045;28;20484;-48
2022/08/15 09:19:47;;;;;;;7.80;3.45;;;26.20;86.40;;;;;;5033212;28;20091;-47
2022/08/15 09:22:18;;;;;;;8.48;2.95;;;26.30;85.20;;;;;;5013953;28;20041;-52
2022/08/15 09:24:45;;;;;;;10.05;3.40;;;26.30;84.30;;;;;;5014557;28;20041;-50
2022/08/15 09:27:31;;;;;;;6.90;3.10;;;26.40;83.90;;;;;;5032861;28;20107;-49
2022/08/15 09:30:18;;;;;;;9.70;2.90;;;26.40;83.40;;;;;;5032725;28;20057;-51
2022/08/15 09:33:05;;;;;;;11.93;3.22;;;26.40;84.00;;;;;;5032082;28;20069;-53
2022/08/15 09:35:34;;;;;;;7.65;3.20;;;26.30;81.80;;;;;;5031298;28;20077;-49
2022/08/15 09:38:00;;;;;;;8.30;3.33;;;26.40;82.70;;;;;;5018355;28;20034;-47
2022/08/15 09:40:49;;;;;;;7.90;2.83;;;26.40;83.00;;;;;;5013826;28;20544;-49
2022/08/15 09:43:36;;;;;;;7.63;2.90;;;26.50;82.90;;;;;;5026371;28;20052;-48
2022/08/15 09:46:02;;;;;;;8.82;3.33;;;26.50;82.50;;;;;;5032876;28;20432;-52
2022/08/15 09:48:50;;;;;;;8.88;3.20;;;26.50;82.60;;;;;;5031788;28;20092;-53
2022/08/15 09:51:17;;;;;;;10.45;3.05;;;26.40;82.10;;;;;;5032697;28;20038;-45
2022/08/15 09:53:44;;;;;;;7.80;2.90;;;26.30;82.30;;;;;;5032601;28;20047;-49
2022/08/15 09:56:27;;;;;;;8.15;2.92;;;26.30;81.50;;;;;;5028160;28;20061;-52
2022/08/15 09:58:54;;;;;;;5.70;3.10;;;26.20;82.10;;;;;;5031254;28;20067;-46
2022/08/15 10:01:24;;;;;;;8.35;3.38;;;26.10;82.40;;;;;;5032727;28;20037;-48
2022/08/15 10:03:54;;;;;;;9.45;3.60;;;26.10;82.60;;;;;;5032745;28;20037;-51
2022/08/15 10:06:23;;;;;;;9.38;3.22;;;26.20;82.60;;;;;;5032366;28;20491;-50
2022/08/15 10:09:01;;;;;;;7.95;3.42;;;26.20;81.80;;;;;;5024482;28;20048;-55
2022/08/15 10:11:32;;;;;;;7.32;3.30;;;26.20;81.50;;;;;;5027148;28;20092;-52
2022/08/15 10:14:05;;;;;;;5.40;3.30;;;26.20;81.60;;;;;;5032678;28;20052;-52
2022/08/15 10:16:39;;;;;;;8.25;3.13;;;26.30;81.60;;;;;;5031675;28;20041;-51
2022/08/15 10:19:09;;;;;;;7.88;3.70;;;26.30;82.20;;;;;;5032498;28;20504;-50
2022/08/15 10:21:36;;;;;;;9.40;3.50;;;26.30;82.10;;;;;;5032493;28;20045;-49
2022/08/15 10:24:08;;;;;;;11.82;3.40;;;26.20;82.00;;;;;;5031444;28;20128;-50
2022/08/15 10:26:55;;;;;;;7.53;3.50;;;26.30;82.50;;;;;;5013158;28;20045;-47
2022/08/15 10:29:24;;;;;;;8.70;3.30;;;26.30;82.20;;;;;;5016820;28;20073;-51
2022/08/15 10:31:52;;;;;;;6.38;3.70;;;26.40;81.90;;;;;;5032441;28;20047;-50
2022/08/15 10:34:40;;;;;;;9.43;3.10;;;26.50;81.80;;;;;;5031710;28;20049;-50
2022/08/15 10:37:23;;;;;;;7.40;3.22;;;26.60;81.70;;;;;;5033210;28;20049;-50
2022/08/15 10:39:51;;;;;;;8.02;3.00;;;26.60;81.10;;;;;;5035953;28;20127;-51
2022/08/15 10:42:18;;;;;;;7.20;3.15;;;26.80;80.00;;;;;;5036100;28;20041;-52
2022/08/15 10:44:48;;;;;;;6.07;2.90;;;27.00;80.20;;;;;;5034894;28;20061;-45
2022/08/15 10:47:17;;;;;;;6.80;2.65;;;27.10;78.80;;;;;;5035782;28;20151;-52
2022/08/15 10:49:43;;;;;;;5.93;2.60;;;27.20;77.60;;;;;;5035810;28;20041;-52
2022/08/15 10:52:26;;;;;;;5.90;2.97;;;27.30;78.00;;;;;;5034824;28;20033;-48
2022/08/15 10:54:53;;;;;;;7.75;2.40;;;27.50;77.20;;;;;;5034456;28;20056;-52
2022/08/15 10:57:21;;;;;;;5.72;2.60;;;27.60;75.40;;;;;;5017491;28;20038;-51
2022/08/15 10:59:49;;;;;;;5.90;2.75;;;27.80;75.00;;;;;;5016657;28;20052;-51
2022/08/15 11:02:23;;;;;;;6.95;3.05;;;27.80;74.90;;;;;;5028534;28;20038;-56
2022/08/15 11:05:03;;;;;;;6.22;2.67;;;28.00;75.50;;;;;;5030439;28;20050;-48
2022/08/15 11:07:33;;;;;;;9.18;2.63;;;28.10;75.30;;;;;;5034910;28;20041;-48
2022/08/15 11:10:02;;;;;;;9.77;3.00;;;28.20;74.70;;;;;;5033633;28;20060;-44
2022/08/15 11:12:31;;;;;;;10.23;2.55;;;28.40;74.70;;;;;;5035080;28;20076;-47
2022/08/15 11:14:59;;;;;;;6.05;2.30;;;28.50;74.50;;;;;;5034768;28;20041;-54
2022/08/15 11:17:27;;;;;;;7.15;2.63;;;28.60;74.20;;;;;;5034748;28;20132;-52
2022/08/15 11:20:12;;;;;;;7.68;2.92;;;28.60;74.10;;;;;;5030284;28;20042;-53
2022/08/15 11:22:42;;;;;;;8.18;2.78;;;28.40;74.70;;;;;;5015776;28;20042;-50
2022/08/15 11:25:09;;;;;;;5.00;3.08;;;28.20;75.20;;;;;;5022263;28;20061;-47
2022/08/15 11:27:35;;;;;;;5.65;3.17;;;28.20;75.00;;;;;;5033296;28;20099;-49
2022/08/15 11:30:04;;;;;;;7.25;3.08;;;28.30;75.70;;;;;;5029905;28;20046;-53
2022/08/15 11:32:47;;;;;;;8.15;2.83;;;28.30;75.90;;;;;;5015596;28;20100;-42
2022/08/15 11:35:21;;;;;;;6.20;2.80;;;28.40;73.90;;;;;;5023668;28;20050;-45
2022/08/15 11:37:48;;;;;;;7.32;2.70;;;28.40;73.30;;;;;;5026556;28;20076;-52
2022/08/15 11:40:20;;;;;;;6.55;2.30;;;28.40;71.80;;;;;;5015502;28;20050;-53
2022/08/15 11:42:46;;;;;;;5.65;2.80;;;28.40;72.70;;;;;;5015547;28;20038;-50
2022/08/15 11:45:27;;;;;;;5.30;2.47;;;28.40;72.90;;;;;;5015278;28;20042;-48
2022/08/15 11:47:54;;;;;;;6.47;2.90;;;28.60;73.00;;;;;;5015399;28;20069;-47
2022/08/15 11:50:20;;;;;;;6.53;2.90;;;28.70;73.20;;;;;;5015807;28;20042;-50
2022/08/15 11:52:47;;;;;;;7.03;2.47;;;29.00;72.80;;;;;;5015361;28;20049;-54
2022/08/15 11:55:16;;;;;;;4.70;2.70;;;29.10;72.00;;;;;;5013688;28;20052;-50
2022/08/15 11:57:52;;;;;;;6.38;2.55;;;29.30;72.30;;;;;;5015413;28;20041;-50
2022/08/15 12:00:22;;;;;;;6.00;2.42;;;29.40;69.80;;;;;;5015206;28;20042;-54
2022/08/15 12:02:53;;;;;;;6.53;2.60;;;29.50;70.20;;;;;;5014924;28;20056;-50
2022/08/15 12:05:40;;;;;;;6.75;2.75;;;29.60;69.70;;;;;;5024231;28;20087;-48
2022/08/15 12:08:27;;;;;;;9.32;2.42;;;29.50;70.60;;;;;;5033968;28;20069;-55
2022/08/15 12:10:55;;;;;;;4.97;2.70;;;29.80;71.00;;;;;;5033765;28;20041;-48
2022/08/15 12:13:21;;;;;;;6.90;2.47;;;29.90;70.30;;;;;;5027812;28;20100;-47
2022/08/15 12:16:00;;;;;;;9.25;2.80;;;29.70;69.60;;;;;;5014979;28;20042;-50
2022/08/15 12:18:36;;;;;;;6.00;2.50;;;29.60;70.30;;;;;;5014028;28;20129;-49
2022/08/15 12:21:17;;;;;;;7.30;2.60;;;29.60;70.40;;;;;;5022279;28;20045;-52
2022/08/15 12:23:47;;;;;;;5.22;2.72;;;29.60;70.60;;;;;;5020724;28;20096;-52
2022/08/15 12:26:19;;;;;;;7.50;2.70;;;29.80;71.30;;;;;;5032240;28;20045;-54
2022/08/15 12:29:07;;;;;;;6.63;2.40;;;29.90;71.10;;;;;;5033623;28;20041;-50
2022/08/15 12:31:34;;;;;;;9.30;2.72;;;30.10;71.50;;;;;;5033528;28;20069;-52
2022/08/15 12:34:02;;;;;;;6.88;2.65;;;30.20;70.10;;;;;;5015634;28;20499;-46
2022/08/15 12:36:49;;;;;;;6.25;2.38;;;30.30;69.80;;;;;;5025767;28;20501;-52
2022/08/15 12:39:32;;;;;;;8.23;2.70;;;30.30;70.20;;;;;;5033351;28;20451;-54
2022/08/15 12:41:59;;;;;;;9.43;2.60;;;30.20;69.50;;;;;;5033390;28;20049;-53
2022/08/15 12:44:45;;;;;;;5.13;2.50;;;30.10;69.70;;;;;;5014684;28;20088;-50
2022/08/15 12:47:14;;;;;;;7.03;2.72;;;30.10;69.40;;;;;;5014466;28;20038;-50
2022/08/15 12:49:41;;;;;;;8.60;2.58;;;29.90;68.90;;;;;;5015038;28;20493;-50
2022/08/15 12:52:13;;;;;;;3.88;2.00;;;29.90;68.90;;;;;;5015382;28;20042;-50
2022/08/15 12:54:44;;;;;;;5.53;2.13;;;29.80;68.70;;;;;;5013375;28;20045;-52
2022/08/15 12:57:11;;;;;;;4.53;2.30;;;29.80;68.30;;;;;;5024094;28;20440;-51
2022/08/15 12:59:44;;;;;;;4.50;2.10;;;29.90;67.80;;;;;;5033048;28;20455;-48
2022/08/15 13:02:11;;;;;;;5.15;2.47;;;30.00;68.50;;;;;;5033559;28;20049;-51
2022/08/15 13:04:58;;;;;;;8.52;2.80;;;30.00;68.10;;;;;;5033267;28;20041;-53
2022/08/15 13:07:25;;;;;;;5.93;2.88;;;29.80;67.40;;;;;;5033067;28;20045;-49
2022/08/15 13:09:57;;;;;;;10.98;2.70;;;29.60;67.80;;;;;;5032336;28;20370;-52
2022/08/15 13:12:25;;;;;;;6.38;3.40;;;29.40;68.30;;;;;;5031961;28;20033;-52
2022/08/15 13:14:51;;;;;;;7.20;2.75;;;29.40;68.30;;;;;;5033435;28;20045;-53
2022/08/15 13:17:19;;;;;;;6.22;2.88;;;29.30;68.30;;;;;;5032973;28;20057;-55